Terminal Aerodrome Forecast
Issued by NWS

Home | Current Version | Previous Version | Text Only | Print | Product List | Glossary On
Versions: 1 2 3 4 5 6 7 8 9 10 11 12 13 14 15 16 17 18 19 20 21
292
FTUS43 KDLH 290629 AAA
TAFHYR
TAF AMD
KHYR 290629Z 2906/3006 22012KT P6SM VCSH OVC008
     FM291300 27007KT P6SM BKN008 OVC015
     FM291800 32007KT P6SM BKN015
     FM300100 02004KT P6SM BKN040=

USA.gov is the U.S. government's official web portal to all federal, state and local government web resources and services.